Time;durP1;ratioP1;P1;durP2;ratioP2;P2;SDS_P1;SDS_P2;PMS_P1;PMS_P2;Temp;Humidity;BMP_temperature;BMP_pressure;BME280_temperature;BME280_humidity;BME280_pressure;Samples;Min_cycle;Max_cycle;Signal;HPM_P1;HPM_P2
2021/06/14 00:00:57;;;;;;;3.25;2.53;;;17.10;70.10;;;;;;5055304;28;20029;-67
2021/06/14 00:03:23;;;;;;;3.20;1.88;;;17.10;70.30;;;;;;5055301;28;20031;-67
2021/06/14 00:05:49;;;;;;;4.47;2.35;;;17.00;70.50;;;;;;5055285;28;20104;-67
2021/06/14 00:08:19;;;;;;;3.10;2.15;;;17.00;70.80;;;;;;5055326;28;20380;-67
2021/06/14 00:10:47;;;;;;;4.13;2.35;;;17.00;71.10;;;;;;5054972;28;20556;-67
2021/06/14 00:13:13;;;;;;;4.10;2.55;;;16.90;71.30;;;;;;5055078;28;20064;-67
2021/06/14 00:15:41;;;;;;;4.65;2.97;;;16.80;71.50;;;;;;5054883;28;20028;-67
2021/06/14 00:18:07;;;;;;;5.15;3.08;;;16.80;71.70;;;;;;5054961;28;20021;-67
2021/06/14 00:20:34;;;;;;;5.25;3.20;;;16.70;71.80;;;;;;5055081;28;20025;-67
2021/06/14 00:23:00;;;;;;;4.57;2.90;;;16.80;72.10;;;;;;5054794;28;20025;-67
2021/06/14 00:25:27;;;;;;;4.57;2.78;;;16.80;72.30;;;;;;5053346;28;20039;-67
2021/06/14 00:27:54;;;;;;;5.03;3.20;;;16.70;72.40;;;;;;5054825;28;20033;-67
2021/06/14 00:30:26;;;;;;;7.25;3.38;;;16.70;72.60;;;;;;5054880;28;20480;-67
2021/06/14 00:32:52;;;;;;;5.63;3.05;;;16.70;72.90;;;;;;5053563;28;20086;-67
2021/06/14 00:35:17;;;;;;;6.28;2.70;;;16.60;73.10;;;;;;5054864;28;20025;-67
2021/06/14 00:37:43;;;;;;;6.35;3.30;;;16.60;73.30;;;;;;5053288;28;20029;-67
2021/06/14 00:40:09;;;;;;;5.53;3.10;;;16.60;73.40;;;;;;5053371;28;20465;-67
2021/06/14 00:42:34;;;;;;;6.03;3.05;;;16.60;73.50;;;;;;5053121;28;20028;-67
2021/06/14 00:45:00;;;;;;;5.28;3.03;;;16.50;73.60;;;;;;5054579;28;20024;-67
2021/06/14 00:47:26;;;;;;;6.43;2.70;;;16.50;73.70;;;;;;5054531;28;20099;-67
2021/06/14 00:49:52;;;;;;;5.03;2.95;;;16.50;73.90;;;;;;5054593;28;20492;-67
2021/06/14 00:52:18;;;;;;;5.15;3.13;;;16.50;74.10;;;;;;5054123;28;20495;-67
2021/06/14 00:54:43;;;;;;;4.63;3.45;;;16.40;74.30;;;;;;5054328;28;20029;-67
2021/06/14 00:57:09;;;;;;;4.20;3.20;;;16.40;74.60;;;;;;5054194;28;20029;-67
2021/06/14 00:59:34;;;;;;;5.25;3.33;;;16.30;74.70;;;;;;5054261;28;20029;-67
2021/06/14 01:02:00;;;;;;;6.65;4.15;;;16.20;74.90;;;;;;5054287;28;20028;-67
2021/06/14 01:04:25;;;;;;;6.53;3.85;;;16.20;75.10;;;;;;5052894;28;20028;-67
2021/06/14 01:06:51;;;;;;;7.45;4.20;;;16.20;75.30;;;;;;5054101;28;20025;-67
2021/06/14 01:09:17;;;;;;;5.30;3.40;;;16.20;75.40;;;;;;5054072;28;20021;-67
2021/06/14 01:11:52;;;;;;;7.28;4.18;;;16.10;75.60;;;;;;5053942;28;20146;-67
2021/06/14 01:14:35;;;;;;;6.32;4.25;;;16.10;75.90;;;;;;5053947;28;20021;-67
2021/06/14 01:17:19;;;;;;;6.40;3.83;;;16.10;76.20;;;;;;5053574;28;20187;-67
2021/06/14 01:20:32;;;;;;;5.60;3.80;;;16.00;76.30;;;;;;5053859;28;20051;-67
2021/06/14 01:23:35;;;;;;;6.15;3.65;;;16.00;76.60;;;;;;5031054;28;20033;-67
2021/06/14 01:26:09;;;;;;;6.70;3.78;;;15.90;76.80;;;;;;5053707;28;20032;-67
2021/06/14 01:28:36;;;;;;;7.05;4.05;;;15.90;77.10;;;;;;5053622;28;20017;-67
2021/06/14 01:31:03;;;;;;;6.00;4.30;;;15.80;77.20;;;;;;5053746;28;20033;-67
2021/06/14 01:33:32;;;;;;;4.63;3.53;;;15.80;77.40;;;;;;5053633;28;20106;-67
2021/06/14 01:36:12;;;;;;;6.03;3.78;;;15.80;77.60;;;;;;5053624;28;20055;-67
2021/06/14 01:38:40;;;;;;;4.43;3.50;;;15.70;78.00;;;;;;5052299;28;20463;-66
2021/06/14 01:41:08;;;;;;;6.38;4.00;;;15.60;78.40;;;;;;5053527;28;20017;-67
2021/06/14 01:43:37;;;;;;;7.60;4.35;;;15.60;78.60;;;;;;5051969;28;20385;-67
2021/06/14 01:46:10;;;;;;;9.50;4.20;;;15.60;78.70;;;;;;5053529;28;20358;-66
2021/06/14 01:48:37;;;;;;;6.47;4.72;;;15.60;78.90;;;;;;5052211;28;20748;-67
2021/06/14 01:51:05;;;;;;;6.20;4.80;;;15.50;79.10;;;;;;5053362;28;20469;-67
2021/06/14 01:53:31;;;;;;;7.25;4.85;;;15.50;79.40;;;;;;5053265;28;20028;-67
2021/06/14 01:55:58;;;;;;;6.97;4.70;;;15.40;79.40;;;;;;5053329;28;20025;-67
2021/06/14 01:58:24;;;;;;;6.57;4.75;;;15.40;79.60;;;;;;5053005;28;20556;-67
2021/06/14 02:00:51;;;;;;;9.70;5.03;;;15.40;79.80;;;;;;5053244;28;20165;-67
2021/06/14 02:03:18;;;;;;;6.85;5.35;;;15.40;80.10;;;;;;5052473;28;20021;-67
2021/06/14 02:05:45;;;;;;;6.20;4.85;;;15.30;80.30;;;;;;5053102;28;20021;-67
2021/06/14 02:08:14;;;;;;;7.07;4.35;;;15.30;80.50;;;;;;5053095;28;20025;-67
2021/06/14 02:10:40;;;;;;;5.75;4.30;;;15.30;80.80;;;;;;5053110;28;20028;-67
2021/06/14 02:13:06;;;;;;;5.97;4.40;;;15.20;81.70;;;;;;5052928;28;20053;-67
2021/06/14 02:15:33;;;;;;;5.25;3.70;;;15.20;81.40;;;;;;5052923;28;20086;-67
2021/06/14 02:18:01;;;;;;;5.63;3.72;;;15.20;81.70;;;;;;5052553;28;20048;-67
2021/06/14 02:20:27;;;;;;;5.13;3.88;;;15.10;81.90;;;;;;5052905;28;20029;-67
2021/06/14 02:22:53;;;;;;;5.47;3.53;;;15.10;82.10;;;;;;5053053;28;20047;-67
2021/06/14 02:25:19;;;;;;;7.05;3.58;;;15.10;82.30;;;;;;5052864;28;20051;-67
2021/06/14 02:27:45;;;;;;;4.97;3.50;;;15.00;82.40;;;;;;5052859;28;20028;-67
2021/06/14 02:30:14;;;;;;;6.13;3.35;;;15.00;82.70;;;;;;5052650;28;20037;-66
2021/06/14 02:32:41;;;;;;;3.80;2.55;;;15.00;83.10;;;;;;5052827;28;20057;-66
2021/06/14 02:35:08;;;;;;;3.72;2.45;;;14.90;83.40;;;;;;5052770;28;20086;-66
2021/06/14 02:37:37;;;;;;;3.90;3.03;;;14.90;83.80;;;;;;5051476;28;20079;-67
2021/06/14 02:40:05;;;;;;;3.60;2.72;;;14.90;84.10;;;;;;5052847;28;20017;-67
2021/06/14 02:42:31;;;;;;;3.97;2.35;;;14.80;84.10;;;;;;5052731;28;20070;-67
2021/06/14 02:44:57;;;;;;;4.05;2.80;;;14.80;84.20;;;;;;5052410;28;20025;-67
2021/06/14 02:47:23;;;;;;;4.15;2.92;;;14.80;84.30;;;;;;5052706;28;20477;-67
2021/06/14 02:49:50;;;;;;;5.28;2.38;;;14.80;84.20;;;;;;5052660;28;20029;-67
2021/06/14 02:52:16;;;;;;;4.93;2.85;;;14.80;84.00;;;;;;5052703;28;20017;-67
2021/06/14 02:54:51;;;;;;;3.83;2.72;;;14.80;83.60;;;;;;5052547;28;20492;-67
2021/06/14 02:57:18;;;;;;;3.90;2.70;;;14.90;83.50;;;;;;5051199;28;20025;-67
2021/06/14 02:59:46;;;;;;;3.85;2.85;;;14.80;83.50;;;;;;5052444;28;20017;-67
2021/06/14 03:02:13;;;;;;;6.13;3.47;;;14.80;83.60;;;;;;5052616;28;20431;-67
2021/06/14 03:04:39;;;;;;;3.83;2.58;;;14.80;83.60;;;;;;5052143;28;20075;-67
2021/06/14 03:07:05;;;;;;;3.10;2.65;;;14.80;83.80;;;;;;5052527;28;20044;-67
2021/06/14 03:09:31;;;;;;;4.32;2.72;;;14.80;84.10;;;;;;5051998;28;20029;-66
2021/06/14 03:11:58;;;;;;;6.45;3.30;;;14.70;84.30;;;;;;5052377;28;20033;-67
2021/06/14 03:14:25;;;;;;;5.22;3.40;;;14.70;84.50;;;;;;5052223;28;20108;-66
2021/06/14 03:16:51;;;;;;;3.33;2.80;;;14.70;84.60;;;;;;5053365;28;20508;-66
2021/06/14 03:19:22;;;;;;;3.85;3.20;;;14.60;84.80;;;;;;5054959;28;20025;-66
2021/06/14 03:21:48;;;;;;;4.05;3.05;;;14.60;85.00;;;;;;5056208;28;20048;-66
2021/06/14 03:24:15;;;;;;;4.70;2.67;;;14.60;85.30;;;;;;5056188;28;20484;-66
2021/06/14 03:26:42;;;;;;;5.07;3.47;;;14.60;85.40;;;;;;5055949;28;20116;-66
2021/06/14 03:29:10;;;;;;;5.40;3.38;;;14.50;85.50;;;;;;5056039;28;20021;-66
2021/06/14 03:31:37;;;;;;;4.90;3.03;;;14.50;85.70;;;;;;5054430;28;20477;-66
2021/06/14 03:34:04;;;;;;;5.25;3.00;;;14.50;85.90;;;;;;5055933;28;20025;-66
2021/06/14 03:36:31;;;;;;;4.72;3.28;;;14.50;86.20;;;;;;5054519;28;20028;-66
2021/06/14 03:38:58;;;;;;;3.53;2.78;;;14.40;86.40;;;;;;5055743;28;20029;-66
2021/06/14 03:41:24;;;;;;;5.40;3.42;;;14.40;86.50;;;;;;5055666;28;20029;-66
2021/06/14 03:43:50;;;;;;;4.35;3.08;;;14.40;86.60;;;;;;5055793;28;20427;-66
2021/06/14 03:46:16;;;;;;;4.38;2.95;;;14.40;86.90;;;;;;5055552;28;20086;-66
2021/06/14 03:48:42;;;;;;;5.30;3.35;;;14.40;87.00;;;;;;5055590;28;20021;-66
2021/06/14 03:51:07;;;;;;;6.22;3.40;;;14.40;87.10;;;;;;5055680;28;20366;-66
2021/06/14 03:53:33;;;;;;;5.60;3.22;;;14.30;87.10;;;;;;5055580;28;20024;-66
2021/06/14 03:56:00;;;;;;;6.25;3.30;;;14.30;87.20;;;;;;5055405;28;20071;-66
2021/06/14 03:58:26;;;;;;;6.88;3.05;;;14.30;87.30;;;;;;5055325;28;20439;-66
2021/06/14 04:00:52;;;;;;;5.90;3.10;;;14.30;87.40;;;;;;5055437;28;20487;-66
2021/06/14 04:03:17;;;;;;;4.18;3.00;;;14.40;87.70;;;;;;5055099;28;20013;-66
2021/06/14 04:05:43;;;;;;;4.35;2.45;;;14.30;87.90;;;;;;5054040;28;20063;-66
2021/06/14 04:08:10;;;;;;;3.90;2.28;;;14.30;88.30;;;;;;5054608;28;20524;-66
2021/06/14 04:10:36;;;;;;;5.03;2.58;;;14.20;88.50;;;;;;5054718;28;20031;-66
2021/06/14 04:13:02;;;;;;;4.10;2.65;;;14.20;88.70;;;;;;5053728;28;20017;-66
2021/06/14 04:15:28;;;;;;;3.55;2.40;;;14.20;88.80;;;;;;5054444;28;20025;-66
2021/06/14 04:17:53;;;;;;;3.75;2.40;;;14.20;89.00;;;;;;5054523;28;20064;-66
2021/06/14 04:20:19;;;;;;;3.95;2.67;;;14.30;89.00;;;;;;5054730;28;20579;-66
2021/06/14 04:22:46;;;;;;;4.22;2.50;;;14.30;89.00;;;;;;5054430;28;20469;-66
2021/06/14 04:25:12;;;;;;;4.78;3.33;;;14.40;89.00;;;;;;5051874;28;20131;-66
2021/06/14 04:27:37;;;;;;;3.30;2.40;;;14.40;89.10;;;;;;5051726;28;20516;-66
2021/06/14 04:30:05;;;;;;;5.00;2.55;;;14.40;88.90;;;;;;5032935;28;20018;-66
2021/06/14 04:32:30;;;;;;;5.03;2.90;;;14.40;88.80;;;;;;5036589;28;20541;-66
2021/06/14 04:34:56;;;;;;;4.43;2.75;;;14.50;88.70;;;;;;5037084;28;20060;-66
2021/06/14 04:37:22;;;;;;;5.13;2.80;;;14.50;88.30;;;;;;5035887;28;20032;-66
2021/06/14 04:39:48;;;;;;;6.15;3.10;;;14.60;88.10;;;;;;5034799;28;20074;-67
2021/06/14 04:42:13;;;;;;;5.10;3.20;;;14.60;87.70;;;;;;5034530;28;20017;-66
2021/06/14 04:44:39;;;;;;;4.35;3.20;;;14.70;87.70;;;;;;5035283;28;20053;-66
2021/06/14 04:47:04;;;;;;;5.82;3.45;;;14.70;87.50;;;;;;5034769;28;20083;-66
2021/06/14 04:49:30;;;;;;;4.82;3.42;;;14.70;87.40;;;;;;5038123;28;20033;-66
2021/06/14 04:51:56;;;;;;;7.20;3.50;;;14.80;87.40;;;;;;5035264;28;20024;-66
2021/06/14 04:54:21;;;;;;;4.35;3.08;;;14.90;87.40;;;;;;5035437;28;20477;-66
2021/06/14 04:56:47;;;;;;;6.55;3.53;;;14.90;87.30;;;;;;5033566;28;20036;-66
2021/06/14 04:59:12;;;;;;;6.13;4.10;;;14.90;87.30;;;;;;5033482;28;20018;-66
2021/06/14 05:01:38;;;;;;;6.72;4.60;;;14.90;87.50;;;;;;5035552;28;20021;-66
2021/06/14 05:04:04;;;;;;;7.63;4.18;;;15.00;87.60;;;;;;5034036;28;20026;-66
2021/06/14 05:06:30;;;;;;;7.05;4.53;;;15.00;87.70;;;;;;5036353;28;20068;-66
2021/06/14 05:08:56;;;;;;;8.77;4.85;;;15.10;87.80;;;;;;5034375;28;20470;-66
2021/06/14 05:11:22;;;;;;;6.43;4.43;;;15.10;88.10;;;;;;5034826;28;20045;-66
2021/06/14 05:13:47;;;;;;;9.18;4.30;;;15.10;88.40;;;;;;5033421;28;20068;-66
2021/06/14 05:16:13;;;;;;;7.20;4.50;;;15.10;88.60;;;;;;5033706;28;20127;-66
2021/06/14 05:18:38;;;;;;;7.65;4.00;;;15.20;88.60;;;;;;5034924;28;20049;-66
2021/06/14 05:21:04;;;;;;;7.00;3.60;;;15.20;88.50;;;;;;5034751;28;20017;-66
2021/06/14 05:23:30;;;;;;;5.90;3.75;;;15.30;88.40;;;;;;5036409;28;20477;-66
2021/06/14 05:25:55;;;;;;;6.25;3.90;;;15.30;88.20;;;;;;5034637;28;20021;-66
2021/06/14 05:28:21;;;;;;;5.22;3.72;;;15.40;88.00;;;;;;5035177;28;20037;-66
2021/06/14 05:30:46;;;;;;;5.15;3.63;;;15.50;87.80;;;;;;5035093;28;20029;-67
2021/06/14 05:33:12;;;;;;;6.90;4.30;;;15.50;87.70;;;;;;5033571;28;20599;-66
2021/06/14 05:35:37;;;;;;;5.07;3.85;;;15.60;87.90;;;;;;5035556;28;20104;-66
2021/06/14 05:38:03;;;;;;;7.72;4.10;;;15.70;88.10;;;;;;5032429;28;20022;-66
2021/06/14 05:40:29;;;;;;;5.90;4.13;;;15.70;88.40;;;;;;5031961;28;20029;-66
2021/06/14 05:42:54;;;;;;;7.00;4.95;;;15.70;88.70;;;;;;5034722;28;20014;-66
2021/06/14 05:45:20;;;;;;;8.73;4.10;;;15.80;88.70;;;;;;5036355;28;20565;-66
2021/06/14 05:47:45;;;;;;;8.63;4.75;;;15.80;88.70;;;;;;5036205;28;20040;-66
2021/06/14 05:50:12;;;;;;;6.68;4.60;;;15.90;88.60;;;;;;5033921;28;20036;-66
2021/06/14 05:52:37;;;;;;;9.80;5.65;;;16.00;88.50;;;;;;5034870;28;20021;-66
2021/06/14 05:55:05;;;;;;;9.93;5.82;;;16.00;88.80;;;;;;5033007;28;20021;-66
2021/06/14 05:57:30;;;;;;;5.88;4.38;;;16.10;88.80;;;;;;5033060;28;20021;-66
2021/06/14 05:59:56;;;;;;;6.88;4.40;;;16.20;88.70;;;;;;5032182;28;20418;-66
2021/06/14 06:02:21;;;;;;;12.73;7.43;;;16.30;88.70;;;;;;5034581;28;20537;-66
2021/06/14 06:04:47;;;;;;;10.88;6.57;;;16.30;89.10;;;;;;5036347;28;20025;-66
2021/06/14 06:07:12;;;;;;;8.25;6.45;;;16.40;89.10;;;;;;5032305;28;20071;-66
2021/06/14 06:09:37;;;;;;;13.10;6.93;;;16.50;88.90;;;;;;5034736;28;20029;-66
2021/06/14 06:12:03;;;;;;;13.07;8.63;;;16.50;88.80;;;;;;5033815;28;20104;-66
2021/06/14 06:14:29;;;;;;;10.70;6.97;;;16.60;88.20;;;;;;5033880;28;20461;-66
2021/06/14 06:16:54;;;;;;;10.18;6.80;;;16.70;87.80;;;;;;5034104;28;20076;-66
2021/06/14 06:19:20;;;;;;;11.98;7.53;;;16.70;87.70;;;;;;5033711;28;20033;-66
2021/06/14 06:21:46;;;;;;;10.50;6.95;;;16.80;88.00;;;;;;5035355;28;20385;-66
2021/06/14 06:24:11;;;;;;;10.90;7.50;;;16.90;87.80;;;;;;5034524;28;20056;-66
2021/06/14 06:26:37;;;;;;;12.82;7.97;;;16.90;87.00;;;;;;5035349;28;20392;-66
2021/06/14 06:29:03;;;;;;;11.98;7.85;;;17.00;86.60;;;;;;5032008;28;20508;-66
2021/06/14 06:31:30;;;;;;;12.02;7.68;;;17.10;86.30;;;;;;5033474;28;20024;-66
2021/06/14 06:33:56;;;;;;;14.23;7.35;;;17.20;86.50;;;;;;5032280;28;20018;-66
2021/06/14 06:36:22;;;;;;;12.68;7.18;;;17.30;86.30;;;;;;5042212;28;20485;-66
2021/06/14 06:38:47;;;;;;;8.80;6.25;;;17.40;86.00;;;;;;5052693;28;20029;-66
2021/06/14 06:41:13;;;;;;;9.63;6.93;;;17.40;85.40;;;;;;5049549;28;20052;-66
2021/06/14 06:43:38;;;;;;;11.63;7.55;;;17.50;85.20;;;;;;5049887;28;20394;-65
2021/06/14 06:46:05;;;;;;;9.88;5.30;;;17.60;84.80;;;;;;5051210;28;20452;-65
2021/06/14 06:48:31;;;;;;;11.52;6.43;;;17.70;84.80;;;;;;5050449;28;20028;-65
2021/06/14 06:50:57;;;;;;;10.82;7.10;;;17.80;84.80;;;;;;5052558;28;20028;-65
2021/06/14 06:53:25;;;;;;;11.77;7.07;;;17.90;85.20;;;;;;5056386;28;20086;-65
2021/06/14 06:55:51;;;;;;;10.18;6.88;;;18.00;84.40;;;;;;5056246;28;20033;-66
2021/06/14 06:58:16;;;;;;;12.43;7.93;;;18.10;83.60;;;;;;5055192;28;20388;-66
2021/06/14 07:00:45;;;;;;;11.65;7.60;;;18.20;82.80;;;;;;5056520;28;20477;-66
2021/06/14 07:03:12;;;;;;;13.80;7.75;;;18.30;83.30;;;;;;5072700;28;20494;-66
2021/06/14 07:05:37;;;;;;;11.82;7.00;;;18.30;83.10;;;;;;5057855;28;20492;-66
2021/06/14 07:08:04;;;;;;;11.43;7.00;;;18.50;83.00;;;;;;5056776;28;20036;-66
2021/06/14 07:10:29;;;;;;;10.85;5.82;;;18.60;82.90;;;;;;5055478;28;20088;-65
2021/06/14 07:12:55;;;;;;;11.75;6.93;;;18.60;82.70;;;;;;5055190;28;20025;-65
2021/06/14 07:15:20;;;;;;;12.02;7.53;;;18.70;82.50;;;;;;5055932;28;20090;-65
2021/06/14 07:17:46;;;;;;;12.18;7.25;;;18.80;82.00;;;;;;5055204;28;20041;-65
2021/06/14 07:20:13;;;;;;;10.27;7.38;;;19.00;81.80;;;;;;5036476;28;20036;-66
2021/06/14 07:22:40;;;;;;;12.77;7.60;;;19.10;81.70;;;;;;5049615;28;20655;-66
2021/06/14 07:25:07;;;;;;;10.88;7.53;;;19.20;81.30;;;;;;5054473;28;20032;-66
2021/06/14 07:27:33;;;;;;;13.35;7.95;;;19.30;81.60;;;;;;5055843;28;20476;-66
2021/06/14 07:30:00;;;;;;;10.27;7.43;;;19.40;80.00;;;;;;5055921;28;20037;-66
2021/06/14 07:32:26;;;;;;;12.90;8.73;;;19.50;79.80;;;;;;5055791;28;20114;-66
2021/06/14 07:34:51;;;;;;;10.45;8.00;;;19.60;79.70;;;;;;5055716;28;20091;-66
2021/06/14 07:37:18;;;;;;;9.38;6.85;;;19.70;79.50;;;;;;5055704;28;20106;-66
2021/06/14 07:39:45;;;;;;;14.27;8.95;;;19.80;79.50;;;;;;5055801;28;20021;-66
2021/06/14 07:42:11;;;;;;;13.98;9.63;;;19.90;78.50;;;;;;5055622;28;20028;-66
2021/06/14 07:44:36;;;;;;;11.88;8.15;;;20.00;78.20;;;;;;5055999;28;20381;-67
2021/06/14 07:47:03;;;;;;;11.05;7.82;;;20.10;77.00;;;;;;5054153;28;20483;-66
2021/06/14 07:49:28;;;;;;;13.50;8.90;;;20.20;76.80;;;;;;5055585;28;20104;-67
2021/06/14 07:51:54;;;;;;;11.63;8.13;;;20.30;75.70;;;;;;5053755;28;20116;-66
2021/06/14 07:54:19;;;;;;;15.27;9.73;;;20.40;76.10;;;;;;5054895;28;20021;-66
2021/06/14 07:56:46;;;;;;;14.45;9.32;;;20.50;77.20;;;;;;5055107;28;20029;-66
2021/06/14 07:59:12;;;;;;;13.55;9.40;;;20.60;74.60;;;;;;5055385;28;20448;-66
2021/06/14 08:01:38;;;;;;;14.77;9.75;;;20.70;74.80;;;;;;5054355;28;20025;-66
2021/06/14 08:04:04;;;;;;;13.05;9.85;;;20.80;76.00;;;;;;5055241;28;20078;-66
2021/06/14 08:06:29;;;;;;;14.50;9.80;;;20.90;75.70;;;;;;5055151;28;20035;-66
2021/06/14 08:08:56;;;;;;;14.55;10.15;;;21.00;75.60;;;;;;5055075;28;20480;-66
2021/06/14 08:11:22;;;;;;;14.05;9.05;;;21.10;75.70;;;;;;5054767;28;20029;-66
2021/06/14 08:13:48;;;;;;;11.70;8.50;;;21.20;74.50;;;;;;5054928;28;20025;-66
2021/06/14 08:16:13;;;;;;;15.40;9.63;;;21.30;74.90;;;;;;5052640;28;20021;-66
2021/06/14 08:19:26;;;;;;;17.45;10.20;;;21.40;72.90;;;;;;5054809;28;20041;-66
2021/06/14 08:26:55;;;;;;;13.63;8.90;;;21.60;71.10;;;;;;5054585;28;20032;-67
2021/06/14 08:29:21;;;;;;;11.32;8.93;;;21.70;69.80;;;;;;5054446;28;20428;-67
2021/06/14 08:31:47;;;;;;;14.05;9.45;;;21.70;69.10;;;;;;5054756;28;20028;-67
2021/06/14 08:34:13;;;;;;;16.52;10.57;;;21.80;68.20;;;;;;5054753;28;20115;-66
2021/06/14 08:36:40;;;;;;;15.63;9.30;;;21.90;66.70;;;;;;5054526;28;20070;-66
2021/06/14 08:39:10;;;;;;;12.40;9.88;;;21.90;64.70;;;;;;5054401;28;20423;-67
2021/06/14 08:41:36;;;;;;;18.40;10.50;;;22.00;66.50;;;;;;5054634;28;20080;-66
2021/06/14 08:44:02;;;;;;;13.75;10.00;;;22.10;66.90;;;;;;5052972;28;20521;-66
2021/06/14 08:46:28;;;;;;;14.10;10.30;;;22.10;67.60;;;;;;5052557;28;20051;-66
2021/06/14 08:48:55;;;;;;;15.30;10.38;;;22.20;66.60;;;;;;5054656;28;20025;-67
2021/06/14 08:51:22;;;;;;;12.65;8.43;;;22.30;66.00;;;;;;5054515;28;20025;-66
2021/06/14 08:53:54;;;;;;;9.77;6.70;;;22.40;66.30;;;;;;5054594;28;20487;-67
2021/06/14 08:56:21;;;;;;;13.27;8.77;;;22.40;65.20;;;;;;5054106;28;20481;-67
2021/06/14 08:58:52;;;;;;;13.90;7.45;;;22.50;63.90;;;;;;5052174;28;20408;-67
2021/06/14 09:01:18;;;;;;;10.90;8.20;;;22.50;63.10;;;;;;5054247;28;20049;-67
2021/06/14 09:03:44;;;;;;;10.95;6.53;;;22.60;62.10;;;;;;5054253;28;20061;-67
2021/06/14 09:06:10;;;;;;;10.13;5.90;;;22.70;61.40;;;;;;5053950;28;20072;-67
2021/06/14 09:08:36;;;;;;;12.82;7.68;;;22.70;59.70;;;;;;5053882;28;20025;-67
2021/06/14 09:11:02;;;;;;;9.93;6.05;;;22.80;61.30;;;;;;5052759;28;20094;-67
2021/06/14 09:13:31;;;;;;;10.05;5.65;;;22.90;61.80;;;;;;5053191;28;20029;-67
2021/06/14 09:16:13;;;;;;;10.80;5.55;;;23.00;59.80;;;;;;5053610;28;20086;-67
2021/06/14 09:18:41;;;;;;;8.18;5.40;;;23.10;59.40;;;;;;5053547;28;20036;-67
2021/06/14 09:21:11;;;;;;;10.45;6.20;;;23.10;59.70;;;;;;5053915;28;20021;-67
2021/06/14 09:23:46;;;;;;;10.02;5.22;;;23.20;59.60;;;;;;5053626;28;20021;-67
2021/06/14 09:26:33;;;;;;;9.15;4.80;;;23.30;59.80;;;;;;5053757;28;20063;-67
2021/06/14 09:29:15;;;;;;;7.75;4.35;;;23.40;58.70;;;;;;5053653;28;20108;-67
2021/06/14 09:31:50;;;;;;;7.07;4.10;;;23.50;58.30;;;;;;5053406;28;20115;-67
2021/06/14 09:34:18;;;;;;;4.35;2.78;;;23.60;57.70;;;;;;5052333;28;20021;-67
2021/06/14 09:37:07;;;;;;;6.97;4.50;;;23.60;57.70;;;;;;5052218;28;20032;-67
2021/06/14 09:39:42;;;;;;;5.70;2.88;;;23.80;56.70;;;;;;5050959;28;20075;-67
2021/06/14 09:42:21;;;;;;;7.78;3.25;;;23.80;57.10;;;;;;5050573;28;20023;-67
2021/06/14 09:44:49;;;;;;;7.45;3.88;;;24.00;57.00;;;;;;5050793;28;20028;-67
2021/06/14 09:47:15;;;;;;;9.75;2.88;;;24.00;56.50;;;;;;5053270;28;20104;-68
2021/06/14 09:49:57;;;;;;;6.55;2.78;;;24.00;56.20;;;;;;5053102;28;20025;-67
2021/06/14 09:52:24;;;;;;;6.45;3.90;;;24.20;56.20;;;;;;5053349;28;20315;-68
2021/06/14 09:54:50;;;;;;;7.15;3.40;;;24.20;55.70;;;;;;5051936;28;20435;-68
2021/06/14 09:57:27;;;;;;;7.38;3.97;;;24.20;55.80;;;;;;5053092;28;20499;-68
2021/06/14 09:59:53;;;;;;;7.03;3.60;;;24.30;55.90;;;;;;5052713;28;20017;-67
2021/06/14 10:02:19;;;;;;;7.25;3.15;;;24.40;55.60;;;;;;5052566;28;20064;-68
2021/06/14 10:04:52;;;;;;;6.60;2.80;;;24.50;55.50;;;;;;5052676;28;20489;-67
2021/06/14 10:07:18;;;;;;;3.97;2.40;;;24.50;55.50;;;;;;5053230;28;20048;-67
2021/06/14 10:09:46;;;;;;;7.60;4.22;;;24.70;55.70;;;;;;5052830;28;20037;-67
2021/06/14 10:12:26;;;;;;;7.20;3.88;;;24.70;56.40;;;;;;5056812;28;20029;-67
2021/06/14 10:14:56;;;;;;;8.50;3.40;;;24.80;56.10;;;;;;5060504;28;20036;-68
2021/06/14 10:17:35;;;;;;;8.68;3.92;;;24.90;56.20;;;;;;5056126;28;20373;-67
2021/06/14 10:20:13;;;;;;;7.43;3.75;;;24.90;55.50;;;;;;5060623;28;20103;-67
2021/06/14 10:22:40;;;;;;;6.20;3.28;;;25.00;55.90;;;;;;5060441;28;20025;-67
2021/06/14 10:25:07;;;;;;;5.00;2.58;;;25.10;55.60;;;;;;5070064;28;20074;-67
2021/06/14 10:27:33;;;;;;;4.57;2.97;;;25.10;55.30;;;;;;5071412;28;20032;-68
2021/06/14 10:30:00;;;;;;;6.25;3.35;;;25.20;55.20;;;;;;5072673;28;20064;-68
2021/06/14 10:32:26;;;;;;;7.72;2.72;;;25.30;55.00;;;;;;5052490;28;20079;-68
2021/06/14 10:34:54;;;;;;;7.68;3.00;;;25.30;55.20;;;;;;5052807;28;20033;-68
2021/06/14 10:37:23;;;;;;;8.57;3.85;;;25.50;55.20;;;;;;5052682;28;20036;-68
2021/06/14 10:39:52;;;;;;;6.53;3.33;;;25.50;54.30;;;;;;5052299;28;20025;-68
2021/06/14 10:42:18;;;;;;;4.20;2.70;;;25.50;54.10;;;;;;5052716;28;20428;-68
2021/06/14 10:44:44;;;;;;;4.55;2.33;;;25.60;54.10;;;;;;5052669;28;20021;-68
2021/06/14 10:47:10;;;;;;;5.55;2.72;;;25.70;53.90;;;;;;5052598;28;20025;-68
2021/06/14 10:49:36;;;;;;;3.90;2.58;;;25.80;54.00;;;;;;5062695;28;20025;-68
2021/06/14 10:52:04;;;;;;;5.38;2.67;;;25.80;54.60;;;;;;5050766;28;20028;-68
2021/06/14 10:54:45;;;;;;;5.63;2.63;;;25.90;54.30;;;;;;5034108;28;20171;-68
2021/06/14 10:57:12;;;;;;;5.13;2.22;;;26.00;53.70;;;;;;5030208;28;20032;-68
2021/06/14 10:59:40;;;;;;;4.95;2.90;;;26.00;53.70;;;;;;5045979;28;20029;-68
2021/06/14 11:02:08;;;;;;;4.07;2.22;;;26.20;53.40;;;;;;5052381;28;20090;-68
2021/06/14 11:04:33;;;;;;;3.65;2.53;;;26.30;53.30;;;;;;5052454;28;20100;-68
2021/06/14 11:07:00;;;;;;;4.60;2.30;;;26.30;53.50;;;;;;5052289;28;20482;-68
2021/06/14 11:09:37;;;;;;;4.30;2.13;;;26.40;53.30;;;;;;5050988;28;20028;-68
2021/06/14 11:12:03;;;;;;;3.13;2.10;;;26.50;53.00;;;;;;5050685;28;20025;-68
2021/06/14 11:14:45;;;;;;;4.20;2.03;;;26.50;53.10;;;;;;5051856;28;20021;-68
2021/06/14 11:17:31;;;;;;;3.65;2.08;;;26.70;52.90;;;;;;5053374;28;20040;-68
2021/06/14 11:20:00;;;;;;;4.60;2.53;;;26.80;52.90;;;;;;5049299;28;20108;-68
2021/06/14 11:22:55;;;;;;;3.95;2.05;;;26.90;53.20;;;;;;5058860;28;20053;-68
2021/06/14 11:25:27;;;;;;;8.50;2.20;;;27.10;52.40;;;;;;5050291;28;20071;-69
2021/06/14 11:27:54;;;;;;;4.28;2.42;;;27.10;51.50;;;;;;5052121;28;20029;-69
2021/06/14 11:30:29;;;;;;;3.97;2.33;;;27.20;51.50;;;;;;5050489;28;20032;-69
2021/06/14 11:32:56;;;;;;;5.38;2.38;;;27.40;51.40;;;;;;5051819;28;20507;-69
2021/06/14 11:35:22;;;;;;;3.92;2.33;;;27.40;50.80;;;;;;5051744;28;20118;-69
2021/06/14 11:37:49;;;;;;;4.63;2.40;;;27.50;51.40;;;;;;5054227;28;20476;-69
2021/06/14 11:40:23;;;;;;;3.45;1.80;;;27.50;51.30;;;;;;5053850;28;20072;-69
2021/06/14 11:42:53;;;;;;;3.28;2.03;;;27.70;51.00;;;;;;5053294;28;20071;-69
2021/06/14 11:45:41;;;;;;;3.80;2.67;;;27.80;50.70;;;;;;5037204;28;20496;-69
2021/06/14 11:48:24;;;;;;;4.38;2.17;;;28.00;50.10;;;;;;5052564;28;20025;-69
2021/06/14 11:51:08;;;;;;;2.88;1.77;;;28.10;49.80;;;;;;5053132;28;20021;-69
2021/06/14 11:53:56;;;;;;;3.05;2.35;;;28.20;49.90;;;;;;5053872;28;20036;-69
2021/06/14 11:56:23;;;;;;;3.17;2.00;;;28.40;50.00;;;;;;5053329;28;20509;-69
2021/06/14 11:58:53;;;;;;;5.85;2.92;;;28.50;50.10;;;;;;5053783;28;20112;-69
2021/06/14 12:01:27;;;;;;;3.15;2.17;;;28.60;48.40;;;;;;5052774;28;20063;-69
2021/06/14 12:03:56;;;;;;;5.32;2.72;;;28.50;48.70;;;;;;5054807;28;20021;-70
2021/06/14 12:06:23;;;;;;;;;;;28.50;48.70;;;;;;5055389;28;20079;-69
2021/06/14 12:08:49;;;;;;;3.33;2.38;;;28.50;48.80;;;;;;5053669;28;19905;-69
2021/06/14 12:11:15;;;;;;;4.45;2.08;;;28.70;48.40;;;;;;5051965;28;20025;-69
2021/06/14 12:13:40;;;;;;;3.30;1.98;;;28.80;48.50;;;;;;5053175;28;20028;-69
2021/06/14 12:16:06;;;;;;;4.65;2.65;;;29.10;48.50;;;;;;5053711;28;20057;-69
2021/06/14 12:18:32;;;;;;;4.50;2.28;;;29.30;48.20;;;;;;5051965;28;20505;-69
2021/06/14 12:21:09;;;;;;;3.58;2.05;;;29.50;47.70;;;;;;5053156;28;20033;-69
2021/06/14 12:23:38;;;;;;;5.13;2.40;;;29.70;47.40;;;;;;5064010;28;20021;-69
2021/06/14 12:26:09;;;;;;;3.90;2.22;;;29.80;47.40;;;;;;5051953;28;20021;-71
2021/06/14 12:28:35;;;;;;;4.68;2.55;;;30.00;46.80;;;;;;5054341;28;20021;-71
2021/06/14 12:31:08;;;;;;;2.65;2.15;;;30.10;46.30;;;;;;5057105;28;20025;-70
2021/06/14 12:33:36;;;;;;;3.60;2.25;;;30.20;46.50;;;;;;5053778;28;20024;-70
2021/06/14 12:36:03;;;;;;;3.33;2.10;;;30.40;46.50;;;;;;5053980;28;20072;-70
2021/06/14 12:38:29;;;;;;;3.72;2.10;;;30.40;46.70;;;;;;5053852;28;20029;-70
2021/06/14 12:40:55;;;;;;;6.57;2.67;;;30.60;46.80;;;;;;5051158;28;20017;-70
2021/06/14 12:43:21;;;;;;;3.30;2.20;;;30.70;46.70;;;;;;5053884;28;20021;-72
2021/06/14 12:45:47;;;;;;;6.05;2.92;;;30.80;46.30;;;;;;5053685;28;20021;-70
2021/06/14 12:48:15;;;;;;;5.00;2.33;;;30.90;46.00;;;;;;5053373;28;20100;-70
2021/06/14 12:50:49;;;;;;;4.73;2.27;;;31.10;45.70;;;;;;5054104;28;20564;-70
2021/06/14 12:53:18;;;;;;;4.97;2.30;;;31.20;45.40;;;;;;5053818;28;20491;-70
2021/06/14 12:55:45;;;;;;;3.15;2.40;;;31.40;45.30;;;;;;5053968;28;20028;-70